Time;durP1;ratioP1;P1;durP2;ratioP2;P2;SDS_P1;SDS_P2;PMS_P1;PMS_P2;Temp;Humidity;BMP_temperature;BMP_pressure;BME280_temperature;BME280_humidity;BME280_pressure;Samples;Min_cycle;Max_cycle;Signal;HPM_P1;HPM_P2
2023/08/13 00:01:51;;;;;;;;;;;19.80;70.50;;;;;;5103103;28;19912;-74
2023/08/13 00:04:16;;;;;;;;;;;19.80;70.50;;;;;;5084788;28;19934;-75
2023/08/13 00:06:42;;;;;;;;;;;19.70;70.50;;;;;;5083323;28;19912;-74
2023/08/13 00:09:07;;;;;;;;;;;19.70;70.60;;;;;;5084855;28;20454;-75
2023/08/13 00:11:33;;;;;;;;;;;19.60;70.60;;;;;;5102519;28;19916;-75
2023/08/13 00:13:58;;;;;;;;;;;19.60;70.60;;;;;;5103252;28;19920;-75
2023/08/13 00:16:24;;;;;;;;;;;19.50;70.60;;;;;;5104148;28;19919;-74
2023/08/13 00:18:49;;;;;;;;;;;19.50;70.70;;;;;;5104518;28;19916;-75
2023/08/13 00:21:15;;;;;;;;;;;19.50;70.70;;;;;;5086384;28;19912;-74
2023/08/13 00:23:40;;;;;;;;;;;19.40;70.70;;;;;;5087421;28;20357;-75
2023/08/13 00:26:06;;;;;;;;;;;19.40;70.80;;;;;;5086669;28;19972;-74
2023/08/13 00:28:31;;;;;;;;;;;19.40;70.80;;;;;;5103936;28;19949;-74
2023/08/13 00:30:57;;;;;;;;;;;19.30;70.80;;;;;;5086386;28;19912;-74
2023/08/13 00:33:22;;;;;;;;;;;19.40;70.90;;;;;;5084919;28;19919;-74
2023/08/13 00:35:49;;;;;;;;;;;19.30;70.80;;;;;;5084345;28;19920;-75
2023/08/13 00:38:14;;;;;;;;;;;19.30;70.90;;;;;;5083587;28;19923;-74
2023/08/13 00:40:40;;;;;;;;;;;19.30;70.90;;;;;;5100398;28;19912;-74
2023/08/13 00:43:05;;;;;;;;;;;19.30;70.90;;;;;;5080747;28;19912;-74
2023/08/13 00:45:32;;;;;;;;;;;19.30;71.00;;;;;;5097739;28;19912;-74
2023/08/13 00:47:59;;;;;;;;;;;19.30;71.00;;;;;;5078650;28;19916;-74
2023/08/13 00:50:25;;;;;;;;;;;19.20;71.00;;;;;;5097275;28;19912;-73
2023/08/13 00:52:50;;;;;;;;;;;19.20;71.10;;;;;;5078699;28;20367;-74
2023/08/13 00:55:16;;;;;;;;;;;19.20;71.10;;;;;;5097335;28;19966;-73
2023/08/13 00:57:41;;;;;;;;;;;19.20;71.10;;;;;;5096076;28;19916;-74
2023/08/13 01:00:10;;;;;;;;;;;19.20;71.20;;;;;;5096241;28;19939;-76
2023/08/13 01:02:36;;;;;;;;;;;19.10;71.10;;;;;;5076687;28;19911;-75
2023/08/13 01:05:03;;;;;;;;;;;19.10;71.20;;;;;;5076202;28;20077;-77
2023/08/13 01:07:35;;;;;;;;;;;19.10;71.30;;;;;;5094085;28;19912;-77
2023/08/13 01:10:09;;;;;;;;;;;19.10;71.30;;;;;;5093458;28;19920;-77
2023/08/13 01:12:40;;;;;;;;;;;19.00;71.30;;;;;;5093888;28;19912;-77
2023/08/13 01:15:28;;;;;;;;;;;19.00;71.40;;;;;;5075689;28;19913;-78
2023/08/13 01:17:55;;;;;;;;;;;19.00;71.40;;;;;;5093426;28;20392;-77
2023/08/13 01:20:28;;;;;;;;;;;19.00;71.50;;;;;;5093786;28;19912;-77
2023/08/13 01:22:53;;;;;;;;;;;19.00;71.50;;;;;;5093579;28;20002;-77
2023/08/13 01:25:19;;;;;;;;;;;18.90;71.50;;;;;;5093654;28;19982;-78
2023/08/13 01:27:51;;;;;;;;;;;18.90;71.60;;;;;;5093535;28;19912;-77
2023/08/13 01:30:23;;;;;;;;;;;18.90;71.70;;;;;;5093545;28;20034;-77
2023/08/13 01:32:54;;;;;;;;;;;18.80;71.60;;;;;;5093478;28;20371;-77
2023/08/13 01:35:21;;;;;;;;;;;18.80;71.60;;;;;;5093581;28;19918;-77
2023/08/13 01:37:47;;;;;;;;;;;18.80;71.70;;;;;;5093372;28;19916;-77
2023/08/13 01:40:12;;;;;;;;;;;18.80;71.70;;;;;;5075030;28;19958;-77
2023/08/13 01:42:38;;;;;;;;;;;18.70;71.70;;;;;;5075004;28;20279;-77
2023/08/13 01:45:03;;;;;;;;;;;18.70;71.80;;;;;;5093325;28;19916;-77
2023/08/13 01:47:29;;;;;;;;;;;18.60;71.90;;;;;;5093222;28;19920;-76
2023/08/13 01:49:54;;;;;;;;;;;18.60;71.90;;;;;;5074831;28;19956;-77
2023/08/13 01:52:20;;;;;;;;;;;18.60;72.00;;;;;;5093177;28;19951;-76
2023/08/13 01:54:46;;;;;;;;;;;18.60;72.60;;;;;;5092862;28;19924;-77
2023/08/13 01:57:11;;;;;;;;;;;18.60;72.00;;;;;;5074602;28;19958;-77
2023/08/13 01:59:37;;;;;;;;;;;18.50;72.00;;;;;;5074719;28;19916;-77
2023/08/13 02:02:02;;;;;;;;;;;18.50;72.00;;;;;;5092751;28;19912;-76
2023/08/13 02:04:27;;;;;;;;;;;18.50;72.10;;;;;;5074538;28;19919;-77
2023/08/13 02:06:53;;;;;;;;;;;18.50;72.20;;;;;;5093021;28;19951;-78
2023/08/13 02:09:18;;;;;;;;;;;18.40;72.20;;;;;;5074647;28;19912;-80
2023/08/13 02:11:44;;;;;;;;;;;18.40;72.30;;;;;;5074534;28;19919;-79
2023/08/13 02:14:09;;;;;;;;;;;18.40;72.30;;;;;;5092735;28;19912;-80
2023/08/13 02:16:35;;;;;;;;;;;18.40;72.30;;;;;;5092905;28;19948;-80
2023/08/13 02:19:00;;;;;;;;;;;18.40;72.40;;;;;;5074567;28;19920;-79
2023/08/13 02:21:26;;;;;;;;;;;18.40;72.40;;;;;;5092053;28;19950;-79
2023/08/13 02:23:51;;;;;;;;;;;18.30;72.40;;;;;;5074432;28;20409;-78
2023/08/13 02:26:17;;;;;;;;;;;18.30;72.50;;;;;;5092695;28;19955;-79
2023/08/13 02:28:45;;;;;;;;;;;18.30;72.50;;;;;;5074507;28;19918;-79
2023/08/13 02:31:11;;;;;;;;;;;18.30;72.60;;;;;;5074333;28;19912;-78
2023/08/13 02:33:36;;;;;;;;;;;18.30;72.60;;;;;;5089408;28;19939;-78
2023/08/13 02:36:02;;;;;;;;;;;18.30;72.60;;;;;;5092468;28;19913;-79
2023/08/13 02:38:27;;;;;;;;;;;18.30;72.70;;;;;;5074042;28;19920;-79
2023/08/13 02:40:53;;;;;;;;;;;18.20;72.70;;;;;;5092597;28;20382;-80
2023/08/13 02:43:18;;;;;;;;;;;18.20;72.70;;;;;;5092645;28;20317;-78
2023/08/13 02:45:44;;;;;;;;;;;18.20;72.80;;;;;;5092649;28;19961;-79
2023/08/13 02:48:09;;;;;;;;;;;18.20;72.80;;;;;;5092295;28;19912;-79
2023/08/13 02:50:35;;;;;;;;;;;18.10;72.80;;;;;;5073845;28;20338;-80
2023/08/13 02:53:00;;;;;;;;;;;18.10;72.90;;;;;;5092416;28;20010;-79
2023/08/13 02:55:26;;;;;;;;;;;18.10;73.00;;;;;;5092302;28;20261;-80
2023/08/13 02:57:51;;;;;;;;;;;18.10;73.00;;;;;;5073987;28;19916;-79
2023/08/13 03:00:17;;;;;;;;;;;18.10;73.10;;;;;;5074290;28;19912;-80
2023/08/13 03:02:43;;;;;;;;;;;18.10;73.10;;;;;;5092179;28;19955;-79
2023/08/13 03:05:09;;;;;;;;;;;18.10;73.60;;;;;;5074239;28;20329;-79
2023/08/13 03:07:34;;;;;;;;;;;18.00;73.20;;;;;;5092230;28;19912;-79
2023/08/13 03:10:00;;;;;;;;;;;18.00;73.20;;;;;;5074289;28;19912;-79
2023/08/13 03:12:25;;;;;;;;;;;18.00;73.20;;;;;;5092086;28;20000;-79
2023/08/13 03:14:51;;;;;;;;;;;18.00;73.30;;;;;;5074084;28;19912;-79
2023/08/13 03:17:16;;;;;;;;;;;17.90;73.30;;;;;;5092318;28;19912;-74
2023/08/13 03:19:42;;;;;;;;;;;18.00;73.40;;;;;;5074326;28;19934;-73
2023/08/13 03:22:08;;;;;;;;;;;18.00;73.50;;;;;;5092575;28;19916;-73
2023/08/13 03:24:34;;;;;;;;;;;18.00;73.50;;;;;;5092473;28;19918;-74
2023/08/13 03:26:59;;;;;;;;;;;17.90;73.50;;;;;;5092426;28;19947;-73
2023/08/13 03:29:25;;;;;;;;;;;17.90;73.50;;;;;;5074424;28;19912;-73
2023/08/13 03:31:50;;;;;;;;;;;18.00;73.60;;;;;;5092409;28;19916;-73
2023/08/13 03:34:16;;;;;;;;;;;17.90;73.60;;;;;;5095597;28;19916;-73
2023/08/13 03:36:41;;;;;;;;;;;17.90;73.60;;;;;;5096332;28;19927;-73
2023/08/13 03:39:07;;;;;;;;;;;17.90;73.70;;;;;;5078087;28;19920;-73
2023/08/13 03:41:32;;;;;;;;;;;17.90;73.80;;;;;;5096164;28;19919;-73
2023/08/13 03:43:58;;;;;;;;;;;17.90;73.90;;;;;;5078082;28;20347;-73
2023/08/13 03:46:23;;;;;;;;;;;17.80;73.90;;;;;;5077893;28;19912;-73
2023/08/13 03:48:49;;;;;;;;;;;17.80;74.00;;;;;;5077910;28;19935;-73
2023/08/13 03:51:14;;;;;;;;;;;17.80;74.00;;;;;;5096072;28;20011;-73
2023/08/13 03:53:40;;;;;;;;;;;17.80;74.10;;;;;;5077962;28;19912;-73
2023/08/13 03:56:06;;;;;;;;;;;17.70;74.00;;;;;;5077766;28;19952;-73
2023/08/13 03:58:31;;;;;;;;;;;17.70;74.10;;;;;;5095891;28;19920;-73
2023/08/13 04:01:07;;;;;;;;;;;17.70;74.10;;;;;;5095906;28;20387;-73
2023/08/13 04:03:33;;;;;;;;;;;17.70;74.10;;;;;;5077684;28;19908;-73
2023/08/13 04:05:59;;;;;;;;;;;17.70;74.10;;;;;;5095754;28;19916;-73
2023/08/13 04:08:25;;;;;;;;;;;17.70;74.10;;;;;;5095495;28;19908;-73
2023/08/13 04:10:51;;;;;;;;;;;17.70;74.10;;;;;;5077764;28;19915;-74
2023/08/13 04:13:16;;;;;;;;;;;17.70;74.20;;;;;;5095692;28;20052;-73
2023/08/13 04:15:42;;;;;;;;;;;17.70;74.30;;;;;;5077479;28;19908;-73
2023/08/13 04:18:07;;;;;;;;;;;17.70;74.30;;;;;;5077401;28;20391;-73
2023/08/13 04:20:35;;;;;;;;;;;17.70;74.30;;;;;;5077361;28;20245;-73
2023/08/13 04:23:00;;;;;;;;;;;17.70;74.40;;;;;;5077157;28;19908;-73
2023/08/13 04:25:25;;;;;;;;;;;17.70;74.40;;;;;;5095697;28;19908;-74
2023/08/13 04:27:51;;;;;;;;;;;17.70;74.40;;;;;;5095455;28;19915;-73
2023/08/13 04:30:16;;;;;;;;;;;17.70;74.50;;;;;;5077076;28;19908;-73
2023/08/13 04:32:51;;;;;;;;;;;17.70;74.50;;;;;;5095194;28;19935;-73
2023/08/13 04:35:16;;;;;;;;;;;17.70;74.50;;;;;;5095550;28;19914;-74
2023/08/13 04:37:42;;;;;;;;;;;17.70;75.10;;;;;;5095518;28;20002;-73
2023/08/13 04:40:08;;;;;;;;;;;17.70;74.50;;;;;;5076940;28;20006;-74
2023/08/13 04:42:33;;;;;;;;;;;17.70;74.50;;;;;;5095128;28;19915;-73
2023/08/13 04:44:58;;;;;;;;;;;17.70;74.40;;;;;;5076127;28;20003;-73
2023/08/13 04:47:24;;;;;;;;;;;17.80;74.50;;;;;;5076869;28;19947;-73
2023/08/13 04:49:49;;;;;;;;;;;17.80;74.40;;;;;;5094896;28;19912;-74
2023/08/13 04:52:15;;;;;;;;;;;17.80;74.40;;;;;;5076846;28;19908;-73
2023/08/13 04:54:40;;;;;;;;;;;17.80;74.40;;;;;;5094842;28;19923;-73
2023/08/13 04:57:06;;;;;;;;;;;17.90;74.40;;;;;;5076716;28;19915;-73
2023/08/13 04:59:31;;;;;;;;;;;17.90;74.30;;;;;;5076747;28;20367;-73
2023/08/13 05:01:57;;;;;;;;;;;17.90;74.30;;;;;;5076680;28;19919;-73
2023/08/13 05:04:22;;;;;;;;;;;18.00;74.30;;;;;;5076488;28;19908;-73
2023/08/13 05:06:49;;;;;;;;;;;18.00;74.20;;;;;;5076454;28;19908;-73
2023/08/13 05:09:15;;;;;;;;;;;18.10;74.30;;;;;;5094610;28;19908;-73
2023/08/13 05:11:40;;;;;;;;;;;18.10;74.20;;;;;;5094328;28;19931;-74
2023/08/13 05:14:06;;;;;;;;;;;18.10;74.10;;;;;;5076143;28;20026;-74
2023/08/13 05:16:31;;;;;;;;;;;18.10;74.10;;;;;;5076010;28;19908;-73
2023/08/13 05:18:57;;;;;;;;;;;18.20;74.20;;;;;;5094695;28;20378;-74
2023/08/13 05:21:23;;;;;;;;;;;18.20;74.10;;;;;;5076002;28;19951;-74
2023/08/13 05:23:49;;;;;;;;;;;18.20;74.10;;;;;;5094155;28;19916;-72
2023/08/13 05:26:14;;;;;;;;;;;18.20;74.10;;;;;;5075794;28;19908;-73
2023/08/13 05:28:40;;;;;;;;;;;18.30;74.10;;;;;;5094063;28;19908;-73
2023/08/13 05:31:06;;;;;;;;;;;18.30;74.10;;;;;;5094086;28;20368;-72
2023/08/13 05:33:31;;;;;;;;;;;18.30;74.10;;;;;;5093835;28;19955;-73
2023/08/13 05:35:56;;;;;;;;;;;18.30;74.10;;;;;;5094171;28;19965;-73
2023/08/13 05:38:22;;;;;;;;;;;18.40;74.10;;;;;;5093352;28;19913;-76
2023/08/13 05:40:47;;;;;;;;;;;18.40;74.10;;;;;;5075106;28;19912;-76
2023/08/13 05:43:13;;;;;;;;;;;18.40;74.10;;;;;;5093295;28;19959;-76
2023/08/13 05:45:40;;;;;;;;;;;18.40;74.10;;;;;;5093181;28;19915;-76
2023/08/13 05:48:06;;;;;;;;;;;18.40;74.10;;;;;;5093132;28;19908;-75
2023/08/13 05:50:31;;;;;;;;;;;18.40;74.10;;;;;;5092994;28;19916;-76
2023/08/13 05:52:57;;;;;;;;;;;18.50;74.10;;;;;;5074911;28;19966;-76
2023/08/13 05:55:22;;;;;;;;;;;18.50;74.30;;;;;;5074425;28;19920;-76
2023/08/13 05:57:48;;;;;;;;;;;18.40;74.20;;;;;;5074831;28;20340;-77
2023/08/13 06:00:13;;;;;;;;;;;18.50;74.30;;;;;;5070190;28;19912;-77
2023/08/13 06:02:39;;;;;;;;;;;18.40;74.30;;;;;;5053669;28;19916;-77
2023/08/13 06:05:06;;;;;;;;;;;18.40;74.30;;;;;;5070026;28;19912;-76
2023/08/13 06:07:32;;;;;;;;;;;18.40;74.30;;;;;;5070277;28;19913;-76
2023/08/13 06:09:58;;;;;;;;;;;18.50;74.40;;;;;;5053324;28;20414;-76
2023/08/13 06:12:23;;;;;;;;;;;18.50;74.30;;;;;;5070106;28;19913;-76
2023/08/13 06:14:49;;;;;;;;;;;18.50;74.30;;;;;;5070082;28;19966;-76
2023/08/13 06:17:14;;;;;;;;;;;18.50;74.30;;;;;;5053258;28;19955;-75
2023/08/13 06:19:40;;;;;;;;;;;18.50;74.40;;;;;;5069921;28;19917;-80
2023/08/13 06:22:05;;;;;;;;;;;18.50;74.30;;;;;;5053372;28;19960;-76
2023/08/13 06:24:31;;;;;;;;;;;18.50;74.30;;;;;;5069991;28;20419;-75
2023/08/13 06:26:56;;;;;;;;;;;18.50;74.30;;;;;;5053190;28;19944;-76
2023/08/13 06:29:21;;;;;;;;;;;18.60;74.30;;;;;;5069913;28;19913;-76
2023/08/13 06:31:47;;;;;;;;;;;18.70;74.30;;;;;;5086897;28;19919;-76
2023/08/13 06:34:14;;;;;;;;;;;18.70;74.30;;;;;;5092370;28;19957;-76
2023/08/13 06:36:40;;;;;;;;;;;18.70;74.30;;;;;;5092536;28;19912;-75
2023/08/13 06:39:05;;;;;;;;;;;18.80;74.20;;;;;;5092351;28;20030;-76
2023/08/13 06:41:31;;;;;;;;;;;18.80;74.10;;;;;;5074232;28;19919;-76
2023/08/13 06:43:56;;;;;;;;;;;18.90;74.10;;;;;;5092292;28;19919;-76
2023/08/13 06:46:22;;;;;;;;;;;19.00;74.00;;;;;;5092509;28;20359;-76
2023/08/13 06:48:48;;;;;;;;;;;19.00;74.00;;;;;;5092219;28;20302;-76
2023/08/13 06:51:13;;;;;;;;;;;19.00;73.90;;;;;;5092362;28;19912;-75
2023/08/13 06:53:39;;;;;;;;;;;19.10;74.00;;;;;;5092354;28;19919;-76
2023/08/13 06:56:05;;;;;;;;;;;19.10;74.00;;;;;;5092162;28;20565;-76
2023/08/13 06:58:30;;;;;;;;;;;19.10;73.90;;;;;;5092238;28;19924;-76
2023/08/13 07:00:56;;;;;;;;;;;19.10;73.80;;;;;;5092153;28;19913;-75
2023/08/13 07:03:21;;;;;;;;;;;19.10;73.90;;;;;;5073849;28;19912;-77
2023/08/13 07:05:47;;;;;;;;;;;19.20;74.00;;;;;;5092180;28;19966;-75
2023/08/13 07:08:12;;;;;;;;;;;19.20;73.90;;;;;;5093413;28;20318;-76
2023/08/13 07:10:38;;;;;;;;;;;19.20;74.00;;;;;;5096159;28;19951;-76
2023/08/13 07:13:04;;;;;;;;;;;19.30;73.90;;;;;;5096265;28;20007;-76
2023/08/13 07:15:29;;;;;;;;;;;19.30;73.90;;;;;;5096096;28;19961;-76
2023/08/13 07:17:55;;;;;;;;;;;19.30;73.90;;;;;;5078028;28;19916;-76
2023/08/13 07:20:21;;;;;;;;;;;19.30;73.90;;;;;;5077940;28;19931;-76
2023/08/13 07:25:38;;;;;;;;;;;19.40;73.80;;;;;;5084912;28;19912;-75
2023/08/13 07:28:06;;;;;;;;;;;19.40;73.70;;;;;;5077742;28;19912;-76
2023/08/13 07:30:31;;;;;;;;;;;19.50;73.80;;;;;;5095926;28;19999;-76
2023/08/13 07:32:57;;;;;;;;;;;19.50;73.80;;;;;;5095858;28;20333;-76
2023/08/13 07:35:23;;;;;;;;;;;19.60;73.70;;;;;;5077780;28;20271;-76
2023/08/13 07:37:52;;;;;;;;;;;19.50;73.70;;;;;;5092581;28;20431;-77
2023/08/13 07:40:22;;;;;;;;;;;19.60;73.70;;;;;;5095688;28;19927;-76
2023/08/13 07:42:54;;;;;;;;;;;19.70;73.60;;;;;;5076889;28;19955;-77
2023/08/13 07:45:20;;;;;;;;;;;19.80;73.60;;;;;;5077299;28;19951;-76
2023/08/13 07:47:45;;;;;;;;;;;20.00;73.30;;;;;;5077266;28;20418;-76
2023/08/13 07:50:11;;;;;;;;;;;20.20;73.00;;;;;;5095656;28;19935;-75
2023/08/13 07:52:37;;;;;;;;;;;20.30;72.70;;;;;;5095552;28;19938;-77
2023/08/13 07:55:02;;;;;;;;;;;20.50;72.60;;;;;;5095421;28;19940;-76
2023/08/13 07:57:30;;;;;;;;;;;20.70;72.30;;;;;;5095662;28;19912;-73
2023/08/13 07:59:58;;;;;;;;;;;20.80;72.10;;;;;;5095743;28;20372;-73
2023/08/13 08:02:23;;;;;;;;;;;20.90;72.00;;;;;;5060818;28;19923;-73
2023/08/13 08:04:51;;;;;;;;;;;21.00;71.90;;;;;;5077889;28;19912;-71
2023/08/13 08:07:18;;;;;;;;;;;21.00;71.90;;;;;;5077546;28;19912;-72
2023/08/13 08:09:44;;;;;;;;;;;21.00;71.90;;;;;;5095729;28;19958;-72
2023/08/13 08:12:10;;;;;;;;;;;21.00;72.00;;;;;;5077359;28;19952;-73
2023/08/13 08:14:36;;;;;;;;;;;21.00;72.00;;;;;;5095549;28;20265;-73
2023/08/13 08:17:05;;;;;;;;;;;21.00;72.00;;;;;;5077331;28;19919;-71
2023/08/13 08:19:31;;;;;;;;;;;21.00;72.10;;;;;;5076158;28;20013;-74
2023/08/13 08:22:00;;;;;;;;;;;21.10;72.00;;;;;;5095569;28;20483;-74
2023/08/13 08:24:26;;;;;;;;;;;21.20;71.80;;;;;;5077664;28;19923;-74
2023/08/13 08:26:51;;;;;;;;;;;21.30;71.60;;;;;;5077354;28;20310;-73
2023/08/13 08:29:17;;;;;;;;;;;21.40;71.50;;;;;;5077305;28;20006;-73
2023/08/13 08:31:42;;;;;;;;;;;21.40;71.50;;;;;;5077351;28;19919;-72
2023/08/13 08:34:08;;;;;;;;;;;21.40;71.40;;;;;;5077153;28;19912;-73
2023/08/13 08:36:33;;;;;;;;;;;21.50;71.50;;;;;;5095351;28;20363;-72
2023/08/13 08:38:59;;;;;;;;;;;21.50;71.40;;;;;;5077448;28;20290;-74
2023/08/13 08:41:27;;;;;;;;;;;21.50;71.40;;;;;;5077253;28;19916;-73
2023/08/13 08:43:54;;;;;;;;;;;21.50;71.40;;;;;;5076965;28;19919;-73
2023/08/13 08:46:19;;;;;;;;;;;21.40;71.50;;;;;;5095076;28;20002;-73
2023/08/13 08:48:45;;;;;;;;;;;21.40;71.60;;;;;;5077071;28;20007;-73
2023/08/13 08:51:10;;;;;;;;;;;21.40;71.60;;;;;;5094976;28;19919;-72
2023/08/13 08:53:37;;;;;;;;;;;21.50;71.60;;;;;;5095140;28;20454;-73
2023/08/13 08:56:02;;;;;;;;;;;21.50;71.50;;;;;;5073121;28;20316;-73
2023/08/13 08:58:28;;;;;;;;;;;21.50;71.40;;;;;;5074734;28;19916;-71
2023/08/13 09:01:00;;;;;;;;;;;21.60;71.30;;;;;;5074675;28;19913;-74
2023/08/13 09:03:29;;;;;;;;;;;21.60;71.10;;;;;;5071344;28;19973;-74
2023/08/13 09:05:55;;;;;;;;;;;21.70;71.00;;;;;;5074476;28;19917;-73
2023/08/13 09:08:21;;;;;;;;;;;21.80;71.00;;;;;;5069832;28;19917;-76
2023/08/13 09:10:46;;;;;;;;;;;21.80;70.70;;;;;;5072751;28;19935;-76
2023/08/13 09:13:12;;;;;;;;;;;21.90;70.70;;;;;;5072445;28;19912;-77
2023/08/13 09:15:41;;;;;;;;;;;22.00;70.50;;;;;;5072521;28;19912;-77
2023/08/13 09:18:07;;;;;;;;;;;22.10;70.50;;;;;;5014559;28;19924;-77
2023/08/13 09:20:32;;;;;;;;;;;22.10;70.30;;;;;;5014736;28;19913;-77
2023/08/13 09:22:58;;;;;;;;;;;22.20;70.20;;;;;;5014668;28;19924;-77
2023/08/13 09:25:24;;;;;;;;;;;22.30;70.10;;;;;;5031517;28;19913;-79
2023/08/13 09:27:50;;;;;;;;;;;22.40;69.80;;;;;;5031211;28;19940;-76
2023/08/13 09:30:20;;;;;;;;;;;22.50;69.60;;;;;;5031399;28;19936;-76
2023/08/13 09:32:46;;;;;;;;;;;22.60;69.50;;;;;;5014846;28;20373;-74
2023/08/13 09:35:11;;;;;;;;;;;22.70;69.20;;;;;;5031223;28;19940;-75
2023/08/13 09:37:40;;;;;;;;;;;22.80;68.90;;;;;;5014494;28;20424;-75
2023/08/13 09:40:06;;;;;;;;;;;22.90;68.60;;;;;;5014442;28;20397;-76
2023/08/13 09:42:35;;;;;;;;;;;22.90;68.50;;;;;;5031002;28;20380;-75
2023/08/13 09:45:05;;;;;;;;;;;23.00;68.60;;;;;;5014184;28;19951;-78
2023/08/13 09:47:32;;;;;;;;;;;23.10;68.40;;;;;;5032698;28;19913;-72
2023/08/13 09:49:58;;;;;;;;;;;23.30;68.20;;;;;;5064173;28;20032;-76
2023/08/13 09:52:27;;;;;;;;;;;23.30;68.00;;;;;;5073082;28;19913;-75
2023/08/13 09:54:57;;;;;;;;;;;23.50;67.70;;;;;;5074932;28;19924;-76
2023/08/13 09:57:24;;;;;;;;;;;23.60;67.10;;;;;;5093106;28;19919;-76
2023/08/13 09:59:52;;;;;;;;;;;23.70;67.10;;;;;;5093303;28;20011;-77
2023/08/13 10:02:18;;;;;;;;;;;23.70;67.10;;;;;;5090756;28;19916;-76
2023/08/13 10:04:44;;;;;;;;;;;23.70;67.00;;;;;;5075013;28;19912;-76
2023/08/13 10:07:10;;;;;;;;;;;23.80;66.90;;;;;;5075167;28;20282;-76
2023/08/13 10:09:37;;;;;;;;;;;23.90;66.80;;;;;;5074872;28;19958;-76
2023/08/13 10:12:03;;;;;;;;;;;23.90;66.60;;;;;;5093182;28;19912;-76
2023/08/13 10:14:30;;;;;;;;;;;23.90;66.40;;;;;;5074791;28;19961;-78
2023/08/13 10:16:55;;;;;;;;;;;23.90;66.10;;;;;;5094880;28;19970;-80
2023/08/13 10:19:27;;;;;;;;;;;23.90;66.00;;;;;;5094452;28;19916;-83
2023/08/13 10:21:57;;;;;;;;;;;23.90;65.90;;;;;;5075165;28;19912;-79
2023/08/13 10:24:23;;;;;;;;;;;24.00;65.70;;;;;;5074945;28;20260;-79
2023/08/13 10:26:49;;;;;;;;;;;24.00;65.20;;;;;;5093929;28;19912;-79
2023/08/13 10:29:16;;;;;;;;;;;24.00;64.60;;;;;;5075189;28;19912;-80
2023/08/13 10:31:54;;;;;;;;;;;24.10;65.00;;;;;;5075007;28;20551;-80
2023/08/13 10:34:37;;;;;;;;;;;24.10;64.70;;;;;;5093758;28;19958;-79
2023/08/13 10:37:02;;;;;;;;;;;24.30;64.80;;;;;;5094738;28;19912;-79
2023/08/13 10:39:38;;;;;;;;;;;24.40;64.00;;;;;;5076140;28;20475;-78
2023/08/13 10:42:04;;;;;;;;;;;24.50;64.00;;;;;;5094224;28;19912;-80
2023/08/13 10:44:31;;;;;;;;;;;24.50;63.30;;;;;;5075953;28;19912;-81
2023/08/13 10:46:57;;;;;;;;;;;24.40;62.80;;;;;;5094745;28;19912;-81
2023/08/13 10:49:24;;;;;;;;;;;24.30;63.10;;;;;;5076519;28;19955;-77
2023/08/13 10:51:50;;;;;;;;;;;24.30;63.30;;;;;;5075384;28;19957;-80
2023/08/13 10:54:16;;;;;;;;;;;24.30;63.60;;;;;;5075667;28;19912;-81
2023/08/13 10:56:42;;;;;;;;;;;24.30;63.50;;;;;;5075590;28;20007;-79
2023/08/13 10:59:08;;;;;;;;;;;24.40;63.50;;;;;;5075211;28;19982;-81
2023/08/13 11:01:33;;;;;;;;;;;24.40;63.50;;;;;;5075342;28;19909;-81
2023/08/13 11:04:01;;;;;;;;;;;24.40;63.40;;;;;;5075734;28;19908;-81
2023/08/13 11:06:30;;;;;;;;;;;24.50;63.60;;;;;;5093553;28;19908;-81
2023/08/13 11:08:56;;;;;;;;;;;24.50;63.50;;;;;;5075288;28;19915;-80
2023/08/13 11:11:23;;;;;;;;;;;24.50;63.50;;;;;;5075518;28;20487;-80
2023/08/13 11:13:49;;;;;;;;;;;24.40;63.30;;;;;;5093452;28;19915;-81
2023/08/13 11:16:14;;;;;;;;;;;24.30;63.60;;;;;;5092814;28;19908;-80
2023/08/13 11:18:40;;;;;;;;;;;24.30;63.80;;;;;;5094012;28;19918;-80
2023/08/13 11:21:06;;;;;;;;;;;24.30;63.80;;;;;;5094247;28;19908;-80
2023/08/13 11:23:31;;;;;;;;;;;24.30;63.70;;;;;;5093797;28;19908;-81
2023/08/13 11:25:57;;;;;;;;;;;24.30;63.70;;;;;;5093637;28;19912;-82
2023/08/13 11:28:26;;;;;;;;;;;24.40;63.60;;;;;;5074658;28;20291;-74
2023/08/13 11:30:52;;;;;;;;;;;24.50;63.50;;;;;;5074353;28;19908;-72
2023/08/13 11:33:19;;;;;;;;;;;24.50;63.30;;;;;;5092359;28;19962;-72
2023/08/13 11:35:47;;;;;;;;;;;24.60;62.90;;;;;;5092503;28;19908;-72
2023/08/13 11:38:13;;;;;;;;;;;24.70;62.90;;;;;;5073444;28;20169;-74
2023/08/13 11:40:38;;;;;;;;;;;24.80;62.70;;;;;;5074326;28;20002;-73
2023/08/13 11:43:08;;;;;;;;;;;24.80;62.50;;;;;;5074246;28;19951;-74
2023/08/13 11:45:34;;;;;;;;;;;24.90;62.20;;;;;;5074172;28;20348;-77
2023/08/13 11:48:14;;;;;;;;;;;24.80;62.10;;;;;;5074729;28;19922;-76
2023/08/13 11:50:41;;;;;;;;;;;24.80;62.30;;;;;;5074263;28;19939;-75
2023/08/13 11:53:09;;;;;;;;;;;24.80;62.30;;;;;;5073788;28;19912;-76
2023/08/13 11:55:36;;;;;;;;;;;24.80;62.30;;;;;;5095671;28;20460;-78
2023/08/13 11:58:02;;;;;;;;;;;24.80;62.40;;;;;;5078957;28;20264;-82
2023/08/13 12:00:29;;;;;;;;;;;24.90;62.20;;;;;;5093753;28;19919;-80
2023/08/13 12:02:55;;;;;;;;;;;25.00;61.90;;;;;;5096317;28;20425;-80
2023/08/13 12:05:25;;;;;;;;;;;25.20;61.60;;;;;;5079352;28;19909;-80
2023/08/13 12:07:52;;;;;;;;;;;25.20;61.40;;;;;;5079285;28;20029;-79
2023/08/13 12:10:17;;;;;;;;;;;25.20;60.90;;;;;;5078890;28;19920;-78
2023/08/13 12:12:43;;;;;;;;;;;25.20;60.90;;;;;;5077870;28;20295;-78
2023/08/13 12:15:09;;;;;;;;;;;25.30;61.00;;;;;;5096515;28;20279;-78
2023/08/13 12:17:34;;;;;;;;;;;25.40;60.70;;;;;;5096798;28;20036;-80
2023/08/13 12:20:10;;;;;;;;;;;25.50;60.40;;;;;;5079099;28;19908;-79
2023/08/13 12:22:35;;;;;;;;;;;25.60;60.20;;;;;;5080063;28;20001;-79
2023/08/13 12:25:01;;;;;;;;;;;25.70;59.90;;;;;;5078918;28;19912;-78
2023/08/13 12:27:26;;;;;;;;;;;25.70;59.10;;;;;;5078380;28;19908;-79
2023/08/13 12:29:52;;;;;;;;;;;25.70;59.50;;;;;;5077419;28;19951;-79
2023/08/13 12:32:17;;;;;;;;;;;25.80;59.20;;;;;;5077341;28;20282;-79
2023/08/13 12:34:44;;;;;;;;;;;25.70;59.20;;;;;;5077681;28;19908;-79
2023/08/13 12:37:09;;;;;;;;;;;25.70;58.90;;;;;;5077840;28;19963;-84
2023/08/13 12:39:35;;;;;;;;;;;25.70;59.00;;;;;;5077649;28;19947;-84
2023/08/13 12:42:00;;;;;;;;;;;25.70;59.10;;;;;;5077793;28;20334;-83
2023/08/13 12:44:26;;;;;;;;;;;25.70;59.30;;;;;;5077498;28;20364;-85
2023/08/13 12:46:51;;;;;;;;;;;25.70;59.50;;;;;;5077741;28;20325;-83
2023/08/13 12:49:17;;;;;;;;;;;25.70;59.60;;;;;;5077784;28;19908;-84
2023/08/13 12:51:42;;;;;;;;;;;25.50;59.10;;;;;;5077515;28;20406;-84
2023/08/13 12:54:08;;;;;;;;;;;25.40;59.30;;;;;;5077048;28;19908;-83
2023/08/13 12:56:33;;;;;;;;;;;25.30;59.50;;;;;;5077969;28;19920;-84
2023/08/13 12:58:59;;;;;;;;;;;25.20;59.60;;;;;;5078013;28;20383;-84
2023/08/13 13:01:25;;;;;;;;;;;25.30;59.70;;;;;;5077858;28;20276;-83
2023/08/13 13:03:50;;;;;;;;;;;25.40;59.80;;;;;;5096351;28;19935;-83
2023/08/13 13:06:16;;;;;;;;;;;25.40;59.10;;;;;;5077607;28;20276;-85
2023/08/13 13:08:43;;;;;;;;;;;25.40;59.50;;;;;;5078397;28;19912;-85
2023/08/13 13:11:09;;;;;;;;;;;25.40;59.50;;;;;;5078433;28;19957;-84
2023/08/13 13:13:35;;;;;;;;;;;25.40;59.50;;;;;;5099711;28;19908;-85
2023/08/13 13:16:00;;;;;;;;;;;25.40;59.50;;;;;;5079627;28;19958;-85
2023/08/13 13:18:26;;;;;;;;;;;25.40;59.30;;;;;;5077563;28;19916;-83
2023/08/13 13:20:51;;;;;;;;;;;25.40;59.30;;;;;;5077225;28;20289;-79
2023/08/13 13:23:17;;;;;;;;;;;25.40;59.30;;;;;;5077216;28;19919;-85
2023/08/13 13:25:43;;;;;;;;;;;25.40;59.10;;;;;;5096259;28;20261;-86
2023/08/13 13:28:08;;;;;;;;;;;25.50;59.20;;;;;;5078175;28;19915;-84
2023/08/13 13:30:34;;;;;;;;;;;25.60;59.20;;;;;;5078459;28;19908;-86
2023/08/13 13:33:00;;;;;;;;;;;25.60;59.10;;;;;;5096484;28;20379;-87
2023/08/13 13:35:26;;;;;;;;;;;25.70;59.10;;;;;;5078902;28;19963;-87
2023/08/13 13:37:51;;;;;;;;;;;25.70;58.90;;;;;;5077832;28;20288;-88
2023/08/13 13:40:17;;;;;;;;;;;25.80;58.90;;;;;;5096704;28;19931;-87
2023/08/13 13:42:43;;;;;;;;;;;25.90;59.00;;;;;;5078657;28;19957;-83
2023/08/13 13:45:09;;;;;;;;;;;25.90;59.40;;;;;;5078489;28;19908;-87
2023/08/13 13:47:34;;;;;;;;;;;26.00;58.70;;;;;;5096929;28;19908;-88
2023/08/13 13:50:00;;;;;;;;;;;26.00;58.70;;;;;;5080547;28;19908;-88
2023/08/13 13:52:25;;;;;;;;;;;26.00;58.70;;;;;;5081223;28;19967;-88
2023/08/13 13:54:52;;;;;;;;;;;26.00;58.60;;;;;;5080582;28;20023;-88
2023/08/13 13:57:18;;;;;;;;;;;26.10;58.70;;;;;;5079669;28;19912;-87
2023/08/13 13:59:43;;;;;;;;;;;26.10;58.50;;;;;;5079084;28;19919;-85
2023/08/13 14:02:09;;;;;;;;;;;26.10;57.70;;;;;;5080232;28;19943;-87
2023/08/13 14:04:34;;;;;;;;;;;26.10;57.20;;;;;;5079543;28;20275;-91
2023/08/13 14:07:00;;;;;;;;;;;26.10;57.80;;;;;;5079921;28;19909;-91
2023/08/13 14:09:25;;;;;;;;;;;26.10;57.30;;;;;;5081220;28;20033;-89
2023/08/13 14:11:51;;;;;;;;;;;26.10;57.20;;;;;;5079923;28;20256;-89
2023/08/13 14:14:16;;;;;;;;;;;26.10;57.50;;;;;;5080221;28;19908;-88